sensor_id;sensor_type;location;lat;lon;timestamp;P1;durP1;ratioP1;P2;durP2;ratioP2
42334;SDS011;27986;42.700;24.178;2023-02-11T07:56:44;21.55;;;5.82;;
42334;SDS011;27986;42.700;24.178;2023-02-11T07:59:09;27.48;;;5.70;;
42334;SDS011;27986;42.700;24.178;2023-02-11T08:01:35;18.15;;;6.15;;
42334;SDS011;27986;42.700;24.178;2023-02-11T08:04:01;12.95;;;5.55;;
42334;SDS011;27986;42.700;24.178;2023-02-11T08:06:29;21.65;;;4.35;;
42334;SDS011;27986;42.700;24.178;2023-02-11T08:08:55;21.60;;;5.05;;
42334;SDS011;27986;42.700;24.178;2023-02-11T08:11:24;22.15;;;5.80;;
42334;SDS011;27986;42.700;24.178;2023-02-11T08:13:52;20.02;;;5.47;;
42334;SDS011;27986;42.700;24.178;2023-02-11T08:16:25;9.93;;;4.28;;
42334;SDS011;27986;42.700;24.178;2023-02-11T08:18:54;15.77;;;5.32;;
42334;SDS011;27986;42.700;24.178;2023-02-11T08:21:21;19.70;;;4.85;;
42334;SDS011;27986;42.700;24.178;2023-02-11T08:23:47;12.63;;;3.83;;
42334;SDS011;27986;42.700;24.178;2023-02-11T08:26:14;28.65;;;4.78;;
42334;SDS011;27986;42.700;24.178;2023-02-11T08:28:42;31.48;;;5.03;;
42334;SDS011;27986;42.700;24.178;2023-02-11T08:31:12;17.15;;;5.35;;
42334;SDS011;27986;42.700;24.178;2023-02-11T08:33:39;18.48;;;4.82;;
42334;SDS011;27986;42.700;24.178;2023-02-11T08:36:13;13.30;;;4.32;;
42334;SDS011;27986;42.700;24.178;2023-02-11T08:38:45;14.00;;;4.97;;
42334;SDS011;27986;42.700;24.178;2023-02-11T08:41:11;13.00;;;4.88;;
42334;SDS011;27986;42.700;24.178;2023-02-11T08:43:39;18.08;;;4.65;;
42334;SDS011;27986;42.700;24.178;2023-02-11T08:46:05;17.35;;;6.22;;
42334;SDS011;27986;42.700;24.178;2023-02-11T08:48:31;15.52;;;5.65;;
42334;SDS011;27986;42.700;24.178;2023-02-11T08:50:57;26.75;;;7.43;;
42334;SDS011;27986;42.700;24.178;2023-02-11T08:53:22;23.00;;;7.25;;
42334;SDS011;27986;42.700;24.178;2023-02-11T08:55:49;23.85;;;7.38;;
42334;SDS011;27986;42.700;24.178;2023-02-11T08:58:15;30.85;;;8.07;;
42334;SDS011;27986;42.700;24.178;2023-02-11T09:00:41;23.17;;;9.18;;
42334;SDS011;27986;42.700;24.178;2023-02-11T09:03:09;27.70;;;11.32;;
42334;SDS011;27986;42.700;24.178;2023-02-11T09:05:47;34.20;;;11.88;;
42334;SDS011;27986;42.700;24.178;2023-02-11T09:08:14;35.38;;;10.98;;
42334;SDS011;27986;42.700;24.178;2023-02-11T09:10:41;46.97;;;10.73;;
42334;SDS011;27986;42.700;24.178;2023-02-11T09:13:07;25.73;;;8.52;;
42334;SDS011;27986;42.700;24.178;2023-02-11T09:15:33;23.67;;;6.40;;
42334;SDS011;27986;42.700;24.178;2023-02-11T09:17:59;70.00;;;18.52;;
42334;SDS011;27986;42.700;24.178;2023-02-11T09:20:25;19.95;;;8.10;;
42334;SDS011;27986;42.700;24.178;2023-02-11T09:22:51;18.15;;;5.63;;
42334;SDS011;27986;42.700;24.178;2023-02-11T09:25:17;16.25;;;6.63;;
42334;SDS011;27986;42.700;24.178;2023-02-11T09:27:42;14.85;;;5.45;;
42334;SDS011;27986;42.700;24.178;2023-02-11T09:30:08;15.85;;;6.18;;
42334;SDS011;27986;42.700;24.178;2023-02-11T09:32:34;23.90;;;7.20;;
42334;SDS011;27986;42.700;24.178;2023-02-11T09:35:00;24.10;;;7.97;;
42334;SDS011;27986;42.700;24.178;2023-02-11T09:37:25;11.63;;;4.68;;
42334;SDS011;27986;42.700;24.178;2023-02-11T09:39:51;11.18;;;4.60;;
42334;SDS011;27986;42.700;24.178;2023-02-11T09:45:18;32.55;;;5.55;;
42334;SDS011;27986;42.700;24.178;2023-02-11T09:47:57;11.57;;;4.50;;
42334;SDS011;27986;42.700;24.178;2023-02-11T09:53:09;23.17;;;5.47;;
42334;SDS011;27986;42.700;24.178;2023-02-11T09:55:39;7.95;;;3.63;;
42334;SDS011;27986;42.700;24.178;2023-02-11T09:58:12;13.57;;;5.93;;
42334;SDS011;27986;42.700;24.178;2023-02-11T10:00:42;18.27;;;6.88;;
42334;SDS011;27986;42.700;24.178;2023-02-11T10:16:56;97.40;;;27.48;;
42334;SDS011;27986;42.700;24.178;2023-02-11T10:22:10;7.18;;;3.67;;
42334;SDS011;27986;42.700;24.178;2023-02-11T10:24:49;14.73;;;4.47;;
42334;SDS011;27986;42.700;24.178;2023-02-11T10:27:19;13.10;;;4.32;;
42334;SDS011;27986;42.700;24.178;2023-02-11T10:29:49;11.65;;;4.10;;
42334;SDS011;27986;42.700;24.178;2023-02-11T10:34:47;63.70;;;17.83;;
42334;SDS011;27986;42.700;24.178;2023-02-11T10:37:12;25.50;;;9.15;;
42334;SDS011;27986;42.700;24.178;2023-02-11T10:39:39;12.75;;;5.13;;
42334;SDS011;27986;42.700;24.178;2023-02-11T10:42:06;19.63;;;6.82;;
42334;SDS011;27986;42.700;24.178;2023-02-11T10:44:41;21.45;;;4.05;;
42334;SDS011;27986;42.700;24.178;2023-02-11T10:47:20;11.55;;;4.20;;
42334;SDS011;27986;42.700;24.178;2023-02-11T10:52:22;19.13;;;6.75;;
42334;SDS011;27986;42.700;24.178;2023-02-11T10:55:05;12.13;;;3.72;;
42334;SDS011;27986;42.700;24.178;2023-02-11T10:57:59;7.15;;;3.15;;
42334;SDS011;27986;42.700;24.178;2023-02-11T11:00:41;14.43;;;3.50;;
42334;SDS011;27986;42.700;24.178;2023-02-11T11:03:20;5.95;;;2.67;;
42334;SDS011;27986;42.700;24.178;2023-02-11T11:05:49;14.60;;;4.22;;
42334;SDS011;27986;42.700;24.178;2023-02-11T11:08:43;12.57;;;4.05;;
42334;SDS011;27986;42.700;24.178;2023-02-11T11:11:16;14.10;;;3.28;;
42334;SDS011;27986;42.700;24.178;2023-02-11T11:13:59;9.43;;;3.55;;
42334;SDS011;27986;42.700;24.178;2023-02-11T11:16:32;22.83;;;5.47;;
42334;SDS011;27986;42.700;24.178;2023-02-11T11:24:14;13.98;;;5.07;;
42334;SDS011;27986;42.700;24.178;2023-02-11T11:29:32;13.75;;;5.22;;
42334;SDS011;27986;42.700;24.178;2023-02-11T11:32:00;16.55;;;6.10;;
42334;SDS011;27986;42.700;24.178;2023-02-11T11:36:55;6.65;;;3.22;;
42334;SDS011;27986;42.700;24.178;2023-02-11T11:39:25;9.65;;;3.42;;
42334;SDS011;27986;42.700;24.178;2023-02-11T11:41:55;8.63;;;2.88;;
42334;SDS011;27986;42.700;24.178;2023-02-11T11:44:26;9.07;;;3.00;;
42334;SDS011;27986;42.700;24.178;2023-02-11T11:55:26;5.47;;;2.40;;
42334;SDS011;27986;42.700;24.178;2023-02-11T11:57:56;7.53;;;3.38;;
42334;SDS011;27986;42.700;24.178;2023-02-11T12:00:28;12.40;;;3.88;;
42334;SDS011;27986;42.700;24.178;2023-02-11T12:14:36;13.90;;;3.38;;
42334;SDS011;27986;42.700;24.178;2023-02-11T12:28:21;19.30;;;5.95;;
42334;SDS011;27986;42.700;24.178;2023-02-11T12:31:05;28.05;;;8.27;;
42334;SDS011;27986;42.700;24.178;2023-02-11T12:42:15;27.88;;;6.03;;
42334;SDS011;27986;42.700;24.178;2023-02-11T12:55:25;18.98;;;6.25;;
42334;SDS011;27986;42.700;24.178;2023-02-11T12:57:55;27.85;;;9.52;;
42334;SDS011;27986;42.700;24.178;2023-02-11T13:00:24;11.80;;;5.47;;
42334;SDS011;27986;42.700;24.178;2023-02-11T13:05:45;38.58;;;12.02;;
42334;SDS011;27986;42.700;24.178;2023-02-11T13:08:32;12.05;;;5.35;;
42334;SDS011;27986;42.700;24.178;2023-02-11T13:11:02;11.88;;;5.18;;
42334;SDS011;27986;42.700;24.178;2023-02-11T13:13:38;9.50;;;4.70;;
42334;SDS011;27986;42.700;24.178;2023-02-11T13:16:28;18.65;;;6.35;;
42334;SDS011;27986;42.700;24.178;2023-02-11T13:22:12;13.57;;;5.75;;
42334;SDS011;27986;42.700;24.178;2023-02-11T13:24:47;14.10;;;4.57;;
42334;SDS011;27986;42.700;24.178;2023-02-11T13:27:42;14.43;;;6.20;;
42334;SDS011;27986;42.700;24.178;2023-02-11T13:35:31;10.95;;;5.10;;
42334;SDS011;27986;42.700;24.178;2023-02-11T13:38:01;23.92;;;8.65;;
42334;SDS011;27986;42.700;24.178;2023-02-11T13:40:37;11.77;;;5.88;;
42334;SDS011;27986;42.700;24.178;2023-02-11T13:43:04;13.10;;;5.50;;
42334;SDS011;27986;42.700;24.178;2023-02-11T13:45:46;35.25;;;12.00;;
42334;SDS011;27986;42.700;24.178;2023-02-11T13:48:23;14.20;;;6.13;;
42334;SDS011;27986;42.700;24.178;2023-02-11T13:51:09;20.80;;;6.82;;
42334;SDS011;27986;42.700;24.178;2023-02-11T13:53:50;11.32;;;4.90;;
42334;SDS011;27986;42.700;24.178;2023-02-11T13:56:39;19.05;;;7.32;;
42334;SDS011;27986;42.700;24.178;2023-02-11T14:16:04;26.60;;;11.00;;
42334;SDS011;27986;42.700;24.178;2023-02-11T14:21:09;9.88;;;4.35;;
42334;SDS011;27986;42.700;24.178;2023-02-11T14:23:40;12.93;;;4.57;;
42334;SDS011;27986;42.700;24.178;2023-02-11T14:28:37;28.23;;;10.70;;
42334;SDS011;27986;42.700;24.178;2023-02-11T14:31:11;24.67;;;7.05;;
42334;SDS011;27986;42.700;24.178;2023-02-11T14:34:01;15.07;;;6.25;;
42334;SDS011;27986;42.700;24.178;2023-02-11T14:36:48;18.98;;;5.85;;
42334;SDS011;27986;42.700;24.178;2023-02-11T14:42:42;26.38;;;9.25;;
42334;SDS011;27986;42.700;24.178;2023-02-11T14:45:08;29.40;;;10.18;;
42334;SDS011;27986;42.700;24.178;2023-02-11T14:47:40;21.77;;;6.53;;
42334;SDS011;27986;42.700;24.178;2023-02-11T14:50:13;17.80;;;6.50;;
42334;SDS011;27986;42.700;24.178;2023-02-11T14:52:43;18.42;;;7.78;;
42334;SDS011;27986;42.700;24.178;2023-02-11T15:00:51;33.33;;;12.75;;
42334;SDS011;27986;42.700;24.178;2023-02-11T15:08:41;32.40;;;11.57;;
42334;SDS011;27986;42.700;24.178;2023-02-11T15:11:11;20.08;;;9.40;;
42334;SDS011;27986;42.700;24.178;2023-02-11T15:13:39;50.15;;;17.70;;
42334;SDS011;27986;42.700;24.178;2023-02-11T15:16:12;29.73;;;11.00;;
42334;SDS011;27986;42.700;24.178;2023-02-11T15:18:43;31.67;;;10.93;;
42334;SDS011;27986;42.700;24.178;2023-02-11T15:21:11;57.45;;;16.70;;
42334;SDS011;27986;42.700;24.178;2023-02-11T15:23:36;22.52;;;9.32;;
42334;SDS011;27986;42.700;24.178;2023-02-11T15:26:10;26.13;;;10.50;;
42334;SDS011;27986;42.700;24.178;2023-02-11T15:28:37;28.27;;;9.15;;
42334;SDS011;27986;42.700;24.178;2023-02-11T15:31:03;29.00;;;11.52;;
42334;SDS011;27986;42.700;24.178;2023-02-11T15:33:37;53.17;;;19.00;;
42334;SDS011;27986;42.700;24.178;2023-02-11T15:36:02;61.08;;;20.08;;
42334;SDS011;27986;42.700;24.178;2023-02-11T15:38:28;84.00;;;28.55;;
42334;SDS011;27986;42.700;24.178;2023-02-11T15:40:58;64.80;;;20.90;;
42334;SDS011;27986;42.700;24.178;2023-02-11T15:43:42;50.95;;;19.83;;
42334;SDS011;27986;42.700;24.178;2023-02-11T15:46:10;46.00;;;14.75;;
42334;SDS011;27986;42.700;24.178;2023-02-11T15:48:49;30.15;;;13.18;;
42334;SDS011;27986;42.700;24.178;2023-02-11T15:51:21;18.13;;;6.15;;
42334;SDS011;27986;42.700;24.178;2023-02-11T15:54:15;19.50;;;8.43;;
42334;SDS011;27986;42.700;24.178;2023-02-11T15:56:51;29.23;;;9.38;;
42334;SDS011;27986;42.700;24.178;2023-02-11T15:59:29;15.20;;;7.28;;
42334;SDS011;27986;42.700;24.178;2023-02-11T16:04:50;28.48;;;11.02;;
42334;SDS011;27986;42.700;24.178;2023-02-11T16:07:36;41.10;;;14.63;;
42334;SDS011;27986;42.700;24.178;2023-02-11T16:13:17;67.47;;;19.98;;
42334;SDS011;27986;42.700;24.178;2023-02-11T16:15:45;39.75;;;14.00;;
42334;SDS011;27986;42.700;24.178;2023-02-11T16:18:20;38.38;;;13.65;;
42334;SDS011;27986;42.700;24.178;2023-02-11T16:20:52;36.42;;;12.82;;
42334;SDS011;27986;42.700;24.178;2023-02-11T16:23:22;73.60;;;24.50;;
42334;SDS011;27986;42.700;24.178;2023-02-11T16:25:58;54.88;;;19.88;;
42334;SDS011;27986;42.700;24.178;2023-02-11T16:28:29;58.58;;;21.40;;
42334;SDS011;27986;42.700;24.178;2023-02-11T16:30:56;69.00;;;23.63;;
42334;SDS011;27986;42.700;24.178;2023-02-11T16:33:22;43.03;;;17.65;;
42334;SDS011;27986;42.700;24.178;2023-02-11T16:35:48;48.58;;;16.75;;
42334;SDS011;27986;42.700;24.178;2023-02-11T16:38:14;38.78;;;12.32;;
42334;SDS011;27986;42.700;24.178;2023-02-11T16:40:40;33.75;;;12.55;;
42334;SDS011;27986;42.700;24.178;2023-02-11T16:43:08;38.08;;;14.55;;
42334;SDS011;27986;42.700;24.178;2023-02-11T16:45:37;54.67;;;16.73;;
42334;SDS011;27986;42.700;24.178;2023-02-11T16:48:06;58.00;;;20.17;;
42334;SDS011;27986;42.700;24.178;2023-02-11T16:50:33;42.95;;;19.55;;
42334;SDS011;27986;42.700;24.178;2023-02-11T16:52:59;68.00;;;18.58;;
42334;SDS011;27986;42.700;24.178;2023-02-11T16:55:30;49.72;;;18.40;;
42334;SDS011;27986;42.700;24.178;2023-02-11T16:57:56;44.78;;;17.10;;
42334;SDS011;27986;42.700;24.178;2023-02-11T17:00:21;38.00;;;16.63;;
42334;SDS011;27986;42.700;24.178;2023-02-11T17:02:47;48.85;;;18.00;;
42334;SDS011;27986;42.700;24.178;2023-02-11T17:05:16;51.25;;;18.75;;
42334;SDS011;27986;42.700;24.178;2023-02-11T17:07:45;54.95;;;20.63;;
42334;SDS011;27986;42.700;24.178;2023-02-11T17:10:17;64.70;;;22.13;;
42334;SDS011;27986;42.700;24.178;2023-02-11T17:12:45;69.10;;;23.50;;
42334;SDS011;27986;42.700;24.178;2023-02-11T17:15:12;57.25;;;21.63;;
42334;SDS011;27986;42.700;24.178;2023-02-11T17:17:37;63.85;;;19.67;;
42334;SDS011;27986;42.700;24.178;2023-02-11T17:20:03;41.05;;;16.88;;
42334;SDS011;27986;42.700;24.178;2023-02-11T17:22:29;53.65;;;20.17;;
42334;SDS011;27986;42.700;24.178;2023-02-11T17:24:55;60.00;;;21.40;;
42334;SDS011;27986;42.700;24.178;2023-02-11T17:27:21;45.78;;;18.27;;
42334;SDS011;27986;42.700;24.178;2023-02-11T17:29:47;49.05;;;18.95;;
42334;SDS011;27986;42.700;24.178;2023-02-11T17:32:12;61.47;;;22.50;;
42334;SDS011;27986;42.700;24.178;2023-02-11T17:34:37;59.60;;;22.73;;
42334;SDS011;27986;42.700;24.178;2023-02-11T17:37:03;46.88;;;20.58;;
42334;SDS011;27986;42.700;24.178;2023-02-11T17:39:33;63.92;;;22.20;;
42334;SDS011;27986;42.700;24.178;2023-02-11T17:42:02;63.20;;;23.98;;
42334;SDS011;27986;42.700;24.178;2023-02-11T17:44:30;55.65;;;22.95;;
42334;SDS011;27986;42.700;24.178;2023-02-11T17:46:55;46.80;;;19.15;;
42334;SDS011;27986;42.700;24.178;2023-02-11T17:49:21;46.65;;;15.32;;
42334;SDS011;27986;42.700;24.178;2023-02-11T17:51:46;38.03;;;12.73;;
42334;SDS011;27986;42.700;24.178;2023-02-11T17:54:13;36.22;;;10.00;;
42334;SDS011;27986;42.700;24.178;2023-02-11T17:56:41;22.38;;;9.52;;
42334;SDS011;27986;42.700;24.178;2023-02-11T17:59:06;35.38;;;13.02;;
42334;SDS011;27986;42.700;24.178;2023-02-11T18:01:33;74.10;;;29.10;;
42334;SDS011;27986;42.700;24.178;2023-02-11T18:04:00;33.05;;;12.95;;
42334;SDS011;27986;42.700;24.178;2023-02-11T18:06:26;42.08;;;15.27;;
42334;SDS011;27986;42.700;24.178;2023-02-11T18:08:53;53.25;;;17.77;;
42334;SDS011;27986;42.700;24.178;2023-02-11T18:11:22;36.40;;;15.80;;
42334;SDS011;27986;42.700;24.178;2023-02-11T18:13:51;64.95;;;17.73;;
42334;SDS011;27986;42.700;24.178;2023-02-11T18:16:19;34.83;;;17.08;;
42334;SDS011;27986;42.700;24.178;2023-02-11T18:18:46;43.08;;;14.02;;
42334;SDS011;27986;42.700;24.178;2023-02-11T18:21:12;45.45;;;13.55;;
42334;SDS011;27986;42.700;24.178;2023-02-11T18:23:39;33.63;;;13.48;;
42334;SDS011;27986;42.700;24.178;2023-02-11T18:26:08;33.22;;;12.30;;
42334;SDS011;27986;42.700;24.178;2023-02-11T18:28:35;34.30;;;12.70;;
42334;SDS011;27986;42.700;24.178;2023-02-11T18:31:00;40.95;;;14.52;;
42334;SDS011;27986;42.700;24.178;2023-02-11T18:33:27;61.88;;;21.67;;
42334;SDS011;27986;42.700;24.178;2023-02-11T18:35:54;44.58;;;17.60;;
42334;SDS011;27986;42.700;24.178;2023-02-11T18:38:20;90.55;;;22.95;;
42334;SDS011;27986;42.700;24.178;2023-02-11T18:40:46;49.33;;;18.48;;
42334;SDS011;27986;42.700;24.178;2023-02-11T18:43:14;78.13;;;26.00;;
42334;SDS011;27986;42.700;24.178;2023-02-11T18:45:44;56.83;;;22.67;;
42334;SDS011;27986;42.700;24.178;2023-02-11T18:48:10;44.40;;;14.95;;
42334;SDS011;27986;42.700;24.178;2023-02-11T18:50:38;26.83;;;11.13;;
42334;SDS011;27986;42.700;24.178;2023-02-11T18:53:04;31.17;;;12.18;;
42334;SDS011;27986;42.700;24.178;2023-02-11T18:55:29;49.75;;;15.65;;
42334;SDS011;27986;42.700;24.178;2023-02-11T18:57:55;47.70;;;16.85;;
42334;SDS011;27986;42.700;24.178;2023-02-11T19:00:21;59.38;;;21.95;;
42334;SDS011;27986;42.700;24.178;2023-02-11T19:02:47;78.35;;;26.38;;
42334;SDS011;27986;42.700;24.178;2023-02-11T19:05:12;81.60;;;26.27;;
42334;SDS011;27986;42.700;24.178;2023-02-11T19:07:38;81.57;;;24.02;;
42334;SDS011;27986;42.700;24.178;2023-02-11T19:10:04;88.88;;;24.40;;
42334;SDS011;27986;42.700;24.178;2023-02-11T19:12:30;32.95;;;13.10;;
42334;SDS011;27986;42.700;24.178;2023-02-11T19:14:57;33.45;;;12.23;;
42334;SDS011;27986;42.700;24.178;2023-02-11T19:17:24;44.30;;;14.43;;
42334;SDS011;27986;42.700;24.178;2023-02-11T19:19:51;48.72;;;15.57;;
42334;SDS011;27986;42.700;24.178;2023-02-11T19:22:17;49.90;;;17.85;;
42334;SDS011;27986;42.700;24.178;2023-02-11T19:24:43;63.08;;;22.50;;
42334;SDS011;27986;42.700;24.178;2023-02-11T19:27:09;88.05;;;30.35;;
42334;SDS011;27986;42.700;24.178;2023-02-11T19:29:35;79.07;;;22.98;;
42334;SDS011;27986;42.700;24.178;2023-02-11T19:32:01;49.20;;;20.35;;
42334;SDS011;27986;42.700;24.178;2023-02-11T19:34:29;43.63;;;18.20;;
42334;SDS011;27986;42.700;24.178;2023-02-11T19:36:55;48.45;;;18.98;;
42334;SDS011;27986;42.700;24.178;2023-02-11T19:39:20;51.03;;;20.58;;
42334;SDS011;27986;42.700;24.178;2023-02-11T19:41:48;45.42;;;16.45;;
42334;SDS011;27986;42.700;24.178;2023-02-11T19:44:14;53.75;;;17.92;;
42334;SDS011;27986;42.700;24.178;2023-02-11T19:46:40;50.33;;;17.05;;
42334;SDS011;27986;42.700;24.178;2023-02-11T19:49:06;57.92;;;14.80;;
42334;SDS011;27986;42.700;24.178;2023-02-11T19:51:32;57.63;;;16.02;;
42334;SDS011;27986;42.700;24.178;2023-02-11T19:53:59;45.15;;;14.85;;
42334;SDS011;27986;42.700;24.178;2023-02-11T19:56:25;35.00;;;14.38;;
42334;SDS011;27986;42.700;24.178;2023-02-11T19:58:52;30.27;;;11.98;;
42334;SDS011;27986;42.700;24.178;2023-02-11T20:01:19;26.02;;;11.63;;
42334;SDS011;27986;42.700;24.178;2023-02-11T20:03:49;28.67;;;8.93;;
42334;SDS011;27986;42.700;24.178;2023-02-11T20:06:18;29.33;;;10.35;;
42334;SDS011;27986;42.700;24.178;2023-02-11T20:08:51;20.53;;;9.43;;
42334;SDS011;27986;42.700;24.178;2023-02-11T20:11:17;24.33;;;9.63;;
42334;SDS011;27986;42.700;24.178;2023-02-11T20:13:43;36.53;;;14.68;;
42334;SDS011;27986;42.700;24.178;2023-02-11T20:16:10;25.33;;;10.43;;
42334;SDS011;27986;42.700;24.178;2023-02-11T20:18:37;17.77;;;7.88;;
42334;SDS011;27986;42.700;24.178;2023-02-11T20:21:10;37.90;;;13.57;;
42334;SDS011;27986;42.700;24.178;2023-02-11T20:26:33;40.60;;;14.85;;
42334;SDS011;27986;42.700;24.178;2023-02-11T20:28:59;25.05;;;10.75;;
42334;SDS011;27986;42.700;24.178;2023-02-11T20:31:29;31.48;;;11.05;;
42334;SDS011;27986;42.700;24.178;2023-02-11T20:33:56;35.78;;;11.25;;
42334;SDS011;27986;42.700;24.178;2023-02-11T20:36:23;27.98;;;10.10;;
42334;SDS011;27986;42.700;24.178;2023-02-11T20:38:50;28.02;;;10.70;;
42334;SDS011;27986;42.700;24.178;2023-02-11T20:41:27;29.23;;;10.77;;
42334;SDS011;27986;42.700;24.178;2023-02-11T20:43:57;27.63;;;11.05;;
42334;SDS011;27986;42.700;24.178;2023-02-11T20:46:25;29.55;;;11.23;;
42334;SDS011;27986;42.700;24.178;2023-02-11T20:48:53;21.83;;;9.50;;
42334;SDS011;27986;42.700;24.178;2023-02-11T20:51:21;24.50;;;11.18;;
42334;SDS011;27986;42.700;24.178;2023-02-11T20:53:48;21.67;;;10.60;;
42334;SDS011;27986;42.700;24.178;2023-02-11T20:56:16;35.20;;;13.45;;
42334;SDS011;27986;42.700;24.178;2023-02-11T20:58:43;43.50;;;14.48;;
42334;SDS011;27986;42.700;24.178;2023-02-11T21:01:11;30.85;;;13.23;;
42334;SDS011;27986;42.700;24.178;2023-02-11T21:03:40;47.35;;;16.30;;
42334;SDS011;27986;42.700;24.178;2023-02-11T21:06:08;52.03;;;20.55;;
42334;SDS011;27986;42.700;24.178;2023-02-11T21:08:35;70.57;;;23.23;;
42334;SDS011;27986;42.700;24.178;2023-02-11T21:11:00;64.00;;;22.48;;
42334;SDS011;27986;42.700;24.178;2023-02-11T21:13:26;65.43;;;23.25;;
42334;SDS011;27986;42.700;24.178;2023-02-11T21:15:55;50.40;;;19.00;;
42334;SDS011;27986;42.700;24.178;2023-02-11T21:18:23;58.83;;;20.15;;
42334;SDS011;27986;42.700;24.178;2023-02-11T21:20:49;39.55;;;14.65;;
42334;SDS011;27986;42.700;24.178;2023-02-11T21:23:15;36.95;;;11.55;;
42334;SDS011;27986;42.700;24.178;2023-02-11T21:25:41;27.70;;;10.50;;
42334;SDS011;27986;42.700;24.178;2023-02-11T21:28:06;39.45;;;14.25;;
42334;SDS011;27986;42.700;24.178;2023-02-11T21:30:32;31.83;;;14.18;;
42334;SDS011;27986;42.700;24.178;2023-02-11T21:32:58;41.53;;;12.63;;
42334;SDS011;27986;42.700;24.178;2023-02-11T21:35:23;24.60;;;11.13;;
42334;SDS011;27986;42.700;24.178;2023-02-11T21:37:49;19.98;;;8.18;;
42334;SDS011;27986;42.700;24.178;2023-02-11T21:40:14;29.83;;;8.90;;
42334;SDS011;27986;42.700;24.178;2023-02-11T21:42:40;28.65;;;11.27;;
42334;SDS011;27986;42.700;24.178;2023-02-11T21:45:06;28.85;;;10.60;;
42334;SDS011;27986;42.700;24.178;2023-02-11T21:47:31;33.45;;;13.45;;
42334;SDS011;27986;42.700;24.178;2023-02-11T21:49:57;29.77;;;8.82;;
42334;SDS011;27986;42.700;24.178;2023-02-11T21:52:22;19.27;;;8.30;;
42334;SDS011;27986;42.700;24.178;2023-02-11T21:54:48;12.57;;;6.07;;
42334;SDS011;27986;42.700;24.178;2023-02-11T21:57:14;27.33;;;7.95;;
42334;SDS011;27986;42.700;24.178;2023-02-11T21:59:40;29.73;;;10.05;;
42334;SDS011;27986;42.700;24.178;2023-02-11T22:02:07;34.10;;;12.80;;
42334;SDS011;27986;42.700;24.178;2023-02-11T22:04:33;38.65;;;10.35;;
42334;SDS011;27986;42.700;24.178;2023-02-11T22:06:59;33.38;;;12.68;;
42334;SDS011;27986;42.700;24.178;2023-02-11T22:09:24;24.83;;;9.32;;
42334;SDS011;27986;42.700;24.178;2023-02-11T22:11:50;23.42;;;7.82;;
42334;SDS011;27986;42.700;24.178;2023-02-11T22:14:15;17.45;;;7.65;;
42334;SDS011;27986;42.700;24.178;2023-02-11T22:16:42;17.60;;;6.75;;
42334;SDS011;27986;42.700;24.178;2023-02-11T22:19:09;26.95;;;9.43;;
42334;SDS011;27986;42.700;24.178;2023-02-11T22:21:34;37.22;;;10.45;;
42334;SDS011;27986;42.700;24.178;2023-02-11T22:24:00;21.77;;;8.65;;
42334;SDS011;27986;42.700;24.178;2023-02-11T22:26:26;27.85;;;10.23;;
42334;SDS011;27986;42.700;24.178;2023-02-11T22:28:51;30.63;;;10.82;;
42334;SDS011;27986;42.700;24.178;2023-02-11T22:31:19;30.63;;;11.35;;
42334;SDS011;27986;42.700;24.178;2023-02-11T22:33:52;27.70;;;10.88;;
42334;SDS011;27986;42.700;24.178;2023-02-11T22:36:19;43.97;;;13.30;;
42334;SDS011;27986;42.700;24.178;2023-02-11T22:38:46;29.27;;;9.85;;
42334;SDS011;27986;42.700;24.178;2023-02-11T22:41:12;20.05;;;7.28;;
42334;SDS011;27986;42.700;24.178;2023-02-11T22:43:38;24.67;;;8.15;;
42334;SDS011;27986;42.700;24.178;2023-02-11T22:46:06;34.17;;;10.57;;
42334;SDS011;27986;42.700;24.178;2023-02-11T22:48:34;28.15;;;10.90;;
42334;SDS011;27986;42.700;24.178;2023-02-11T22:51:06;37.75;;;10.65;;
42334;SDS011;27986;42.700;24.178;2023-02-11T22:53:34;28.23;;;11.45;;
42334;SDS011;27986;42.700;24.178;2023-02-11T22:56:00;20.70;;;9.18;;
42334;SDS011;27986;42.700;24.178;2023-02-11T22:58:28;25.73;;;8.80;;
42334;SDS011;27986;42.700;24.178;2023-02-11T23:00:53;21.02;;;8.55;;
42334;SDS011;27986;42.700;24.178;2023-02-11T23:03:19;32.45;;;10.27;;
42334;SDS011;27986;42.700;24.178;2023-02-11T23:05:44;25.70;;;9.50;;
42334;SDS011;27986;42.700;24.178;2023-02-11T23:08:10;24.95;;;8.18;;
42334;SDS011;27986;42.700;24.178;2023-02-11T23:10:37;19.63;;;9.60;;
42334;SDS011;27986;42.700;24.178;2023-02-11T23:13:04;35.25;;;12.80;;
42334;SDS011;27986;42.700;24.178;2023-02-11T23:15:31;32.00;;;14.60;;
42334;SDS011;27986;42.700;24.178;2023-02-11T23:17:57;38.65;;;15.13;;
42334;SDS011;27986;42.700;24.178;2023-02-11T23:20:23;32.53;;;12.07;;
42334;SDS011;27986;42.700;24.178;2023-02-11T23:22:48;32.97;;;11.60;;
42334;SDS011;27986;42.700;24.178;2023-02-11T23:25:14;29.27;;;11.20;;
42334;SDS011;27986;42.700;24.178;2023-02-11T23:27:39;24.05;;;8.77;;
42334;SDS011;27986;42.700;24.178;2023-02-11T23:30:05;25.98;;;10.95;;
42334;SDS011;27986;42.700;24.178;2023-02-11T23:32:31;19.13;;;8.43;;
42334;SDS011;27986;42.700;24.178;2023-02-11T23:34:56;16.02;;;8.05;;
42334;SDS011;27986;42.700;24.178;2023-02-11T23:37:22;32.63;;;10.23;;
42334;SDS011;27986;42.700;24.178;2023-02-11T23:39:47;21.23;;;8.60;;
42334;SDS011;27986;42.700;24.178;2023-02-11T23:42:13;22.70;;;7.70;;
42334;SDS011;27986;42.700;24.178;2023-02-11T23:44:38;19.63;;;6.90;;
42334;SDS011;27986;42.700;24.178;2023-02-11T23:47:04;30.20;;;9.15;;
42334;SDS011;27986;42.700;24.178;2023-02-11T23:49:29;31.30;;;11.13;;
42334;SDS011;27986;42.700;24.178;2023-02-11T23:51:55;27.45;;;10.75;;
42334;SDS011;27986;42.700;24.178;2023-02-11T23:54:20;28.10;;;9.82;;
42334;SDS011;27986;42.700;24.178;2023-02-11T23:56:46;30.40;;;12.00;;
42334;SDS011;27986;42.700;24.178;2023-02-11T23:59:12;23.10;;;10.18;;
